sensor_id;sensor_type;location;lat;lon;timestamp;P1;durP1;ratioP1;P2;durP2;ratioP2
72087;SDS011;59961;50.232;8.616;2022-11-20T00:02:07;16.17;;;6.97;;
72087;SDS011;59961;50.232;8.616;2022-11-20T00:04:32;16.23;;;6.87;;
72087;SDS011;59961;50.232;8.616;2022-11-20T00:06:58;15.02;;;6.95;;
72087;SDS011;59961;50.232;8.616;2022-11-20T00:09:23;14.27;;;6.50;;
72087;SDS011;59961;50.232;8.616;2022-11-20T00:11:48;16.70;;;7.13;;
72087;SDS011;59961;50.232;8.616;2022-11-20T00:14:13;18.20;;;7.90;;
72087;SDS011;59961;50.232;8.616;2022-11-20T00:16:39;15.43;;;6.60;;
72087;SDS011;59961;50.232;8.616;2022-11-20T00:19:04;14.97;;;6.73;;
72087;SDS011;59961;50.232;8.616;2022-11-20T00:21:30;15.50;;;6.88;;
72087;SDS011;59961;50.232;8.616;2022-11-20T00:23:55;16.77;;;7.03;;
72087;SDS011;59961;50.232;8.616;2022-11-20T00:26:21;14.77;;;6.70;;
72087;SDS011;59961;50.232;8.616;2022-11-20T00:28:54;15.90;;;6.60;;
72087;SDS011;59961;50.232;8.616;2022-11-20T00:31:19;18.23;;;6.93;;
72087;SDS011;59961;50.232;8.616;2022-11-20T00:33:45;15.27;;;6.43;;
72087;SDS011;59961;50.232;8.616;2022-11-20T00:36:11;16.20;;;6.93;;
72087;SDS011;59961;50.232;8.616;2022-11-20T00:38:37;16.17;;;6.80;;
72087;SDS011;59961;50.232;8.616;2022-11-20T00:41:03;16.17;;;7.33;;
72087;SDS011;59961;50.232;8.616;2022-11-20T00:43:29;15.82;;;7.28;;
72087;SDS011;59961;50.232;8.616;2022-11-20T00:45:57;15.00;;;6.27;;
72087;SDS011;59961;50.232;8.616;2022-11-20T00:48:23;15.67;;;6.63;;
72087;SDS011;59961;50.232;8.616;2022-11-20T00:50:48;14.75;;;6.93;;
72087;SDS011;59961;50.232;8.616;2022-11-20T00:53:13;16.27;;;6.83;;
72087;SDS011;59961;50.232;8.616;2022-11-20T00:55:38;16.13;;;6.50;;
72087;SDS011;59961;50.232;8.616;2022-11-20T00:58:04;15.87;;;6.77;;
72087;SDS011;59961;50.232;8.616;2022-11-20T01:00:29;17.80;;;7.03;;
72087;SDS011;59961;50.232;8.616;2022-11-20T01:02:55;16.23;;;6.53;;
72087;SDS011;59961;50.232;8.616;2022-11-20T01:05:20;16.07;;;6.90;;
72087;SDS011;59961;50.232;8.616;2022-11-20T01:07:45;16.90;;;6.88;;
72087;SDS011;59961;50.232;8.616;2022-11-20T01:10:11;15.07;;;6.83;;
72087;SDS011;59961;50.232;8.616;2022-11-20T01:12:36;16.23;;;6.93;;
72087;SDS011;59961;50.232;8.616;2022-11-20T01:15:01;18.10;;;7.38;;
72087;SDS011;59961;50.232;8.616;2022-11-20T01:17:26;18.37;;;6.50;;
72087;SDS011;59961;50.232;8.616;2022-11-20T01:19:51;16.08;;;6.80;;
72087;SDS011;59961;50.232;8.616;2022-11-20T01:22:16;15.77;;;6.47;;
72087;SDS011;59961;50.232;8.616;2022-11-20T01:24:41;14.60;;;6.57;;
72087;SDS011;59961;50.232;8.616;2022-11-20T01:27:07;16.20;;;6.75;;
72087;SDS011;59961;50.232;8.616;2022-11-20T01:29:32;16.42;;;6.63;;
72087;SDS011;59961;50.232;8.616;2022-11-20T01:31:57;16.15;;;7.07;;
72087;SDS011;59961;50.232;8.616;2022-11-20T01:34:22;17.57;;;7.63;;
72087;SDS011;59961;50.232;8.616;2022-11-20T01:36:47;17.47;;;7.10;;
72087;SDS011;59961;50.232;8.616;2022-11-20T01:39:17;15.93;;;6.93;;
72087;SDS011;59961;50.232;8.616;2022-11-20T01:41:43;17.27;;;7.22;;
72087;SDS011;59961;50.232;8.616;2022-11-20T01:44:45;16.20;;;6.75;;
72087;SDS011;59961;50.232;8.616;2022-11-20T01:47:13;16.90;;;7.57;;
72087;SDS011;59961;50.232;8.616;2022-11-20T01:49:41;15.53;;;6.80;;
72087;SDS011;59961;50.232;8.616;2022-11-20T01:52:08;15.57;;;7.38;;
72087;SDS011;59961;50.232;8.616;2022-11-20T01:54:38;18.42;;;7.25;;
72087;SDS011;59961;50.232;8.616;2022-11-20T01:57:04;16.30;;;7.38;;
72087;SDS011;59961;50.232;8.616;2022-11-20T01:59:30;16.63;;;6.23;;
72087;SDS011;59961;50.232;8.616;2022-11-20T02:01:55;15.70;;;6.77;;
72087;SDS011;59961;50.232;8.616;2022-11-20T02:04:20;14.60;;;6.97;;
72087;SDS011;59961;50.232;8.616;2022-11-20T02:06:52;17.73;;;7.50;;
72087;SDS011;59961;50.232;8.616;2022-11-20T02:09:20;17.90;;;7.32;;
72087;SDS011;59961;50.232;8.616;2022-11-20T02:11:45;13.77;;;6.60;;
72087;SDS011;59961;50.232;8.616;2022-11-20T02:14:10;16.25;;;7.10;;
72087;SDS011;59961;50.232;8.616;2022-11-20T02:16:37;18.73;;;7.30;;
72087;SDS011;59961;50.232;8.616;2022-11-20T02:19:04;17.40;;;7.15;;
72087;SDS011;59961;50.232;8.616;2022-11-20T02:21:40;15.82;;;6.15;;
72087;SDS011;59961;50.232;8.616;2022-11-20T02:24:10;18.05;;;7.63;;
72087;SDS011;59961;50.232;8.616;2022-11-20T02:29:24;16.05;;;6.63;;
72087;SDS011;59961;50.232;8.616;2022-11-20T02:31:50;16.45;;;6.90;;
72087;SDS011;59961;50.232;8.616;2022-11-20T02:34:16;15.73;;;6.63;;
72087;SDS011;59961;50.232;8.616;2022-11-20T02:36:41;16.65;;;7.38;;
72087;SDS011;59961;50.232;8.616;2022-11-20T02:39:07;15.25;;;6.78;;
72087;SDS011;59961;50.232;8.616;2022-11-20T02:41:33;16.50;;;7.07;;
72087;SDS011;59961;50.232;8.616;2022-11-20T02:43:58;15.80;;;6.78;;
72087;SDS011;59961;50.232;8.616;2022-11-20T02:46:24;15.30;;;6.53;;
72087;SDS011;59961;50.232;8.616;2022-11-20T02:48:49;16.53;;;7.37;;
72087;SDS011;59961;50.232;8.616;2022-11-20T02:51:14;16.30;;;6.67;;
72087;SDS011;59961;50.232;8.616;2022-11-20T02:53:39;18.27;;;7.65;;
72087;SDS011;59961;50.232;8.616;2022-11-20T02:56:05;17.80;;;7.57;;
72087;SDS011;59961;50.232;8.616;2022-11-20T02:58:30;18.37;;;7.53;;
72087;SDS011;59961;50.232;8.616;2022-11-20T03:00:55;18.45;;;7.78;;
72087;SDS011;59961;50.232;8.616;2022-11-20T03:03:20;16.80;;;6.85;;
72087;SDS011;59961;50.232;8.616;2022-11-20T03:05:45;16.45;;;7.10;;
72087;SDS011;59961;50.232;8.616;2022-11-20T03:08:10;16.65;;;7.50;;
72087;SDS011;59961;50.232;8.616;2022-11-20T03:10:35;18.50;;;6.95;;
72087;SDS011;59961;50.232;8.616;2022-11-20T03:13:01;16.45;;;6.97;;
72087;SDS011;59961;50.232;8.616;2022-11-20T03:15:26;17.05;;;7.22;;
72087;SDS011;59961;50.232;8.616;2022-11-20T03:17:54;15.87;;;7.20;;
72087;SDS011;59961;50.232;8.616;2022-11-20T03:20:20;16.95;;;7.53;;
72087;SDS011;59961;50.232;8.616;2022-11-20T03:22:45;16.25;;;6.75;;
72087;SDS011;59961;50.232;8.616;2022-11-20T03:25:10;18.27;;;7.30;;
72087;SDS011;59961;50.232;8.616;2022-11-20T03:27:35;16.35;;;6.88;;
72087;SDS011;59961;50.232;8.616;2022-11-20T03:30:01;19.70;;;8.00;;
72087;SDS011;59961;50.232;8.616;2022-11-20T03:32:26;18.88;;;7.47;;
72087;SDS011;59961;50.232;8.616;2022-11-20T03:34:51;18.38;;;7.25;;
72087;SDS011;59961;50.232;8.616;2022-11-20T03:37:16;13.57;;;6.67;;
72087;SDS011;59961;50.232;8.616;2022-11-20T03:39:41;16.17;;;7.03;;
72087;SDS011;59961;50.232;8.616;2022-11-20T03:42:07;14.90;;;6.35;;
72087;SDS011;59961;50.232;8.616;2022-11-20T03:44:52;16.73;;;6.80;;
72087;SDS011;59961;50.232;8.616;2022-11-20T03:47:18;17.48;;;7.70;;
72087;SDS011;59961;50.232;8.616;2022-11-20T03:49:43;16.73;;;6.95;;
72087;SDS011;59961;50.232;8.616;2022-11-20T03:52:08;15.35;;;7.03;;
72087;SDS011;59961;50.232;8.616;2022-11-20T03:54:33;16.10;;;6.53;;
72087;SDS011;59961;50.232;8.616;2022-11-20T03:56:58;14.80;;;7.15;;
72087;SDS011;59961;50.232;8.616;2022-11-20T03:59:23;16.40;;;6.75;;
72087;SDS011;59961;50.232;8.616;2022-11-20T04:01:48;17.43;;;7.27;;
72087;SDS011;59961;50.232;8.616;2022-11-20T04:04:13;17.30;;;7.47;;
72087;SDS011;59961;50.232;8.616;2022-11-20T04:06:39;17.77;;;7.35;;
72087;SDS011;59961;50.232;8.616;2022-11-20T04:09:04;17.60;;;7.50;;
72087;SDS011;59961;50.232;8.616;2022-11-20T04:11:30;14.80;;;7.07;;
72087;SDS011;59961;50.232;8.616;2022-11-20T04:13:57;18.65;;;7.53;;
72087;SDS011;59961;50.232;8.616;2022-11-20T04:16:23;15.55;;;6.80;;
72087;SDS011;59961;50.232;8.616;2022-11-20T04:18:52;17.60;;;7.65;;
72087;SDS011;59961;50.232;8.616;2022-11-20T04:21:17;15.83;;;6.67;;
72087;SDS011;59961;50.232;8.616;2022-11-20T04:23:43;17.95;;;6.90;;
72087;SDS011;59961;50.232;8.616;2022-11-20T04:26:09;16.10;;;6.80;;
72087;SDS011;59961;50.232;8.616;2022-11-20T04:28:35;17.57;;;7.93;;
72087;SDS011;59961;50.232;8.616;2022-11-20T04:31:01;17.92;;;7.22;;
72087;SDS011;59961;50.232;8.616;2022-11-20T04:33:26;16.77;;;7.32;;
72087;SDS011;59961;50.232;8.616;2022-11-20T04:35:52;14.98;;;6.72;;
72087;SDS011;59961;50.232;8.616;2022-11-20T04:38:17;15.57;;;6.67;;
72087;SDS011;59961;50.232;8.616;2022-11-20T04:40:42;16.97;;;7.40;;
72087;SDS011;59961;50.232;8.616;2022-11-20T04:43:07;15.93;;;6.37;;
72087;SDS011;59961;50.232;8.616;2022-11-20T04:45:32;18.85;;;7.15;;
72087;SDS011;59961;50.232;8.616;2022-11-20T04:47:58;16.33;;;7.32;;
72087;SDS011;59961;50.232;8.616;2022-11-20T04:50:23;16.75;;;7.30;;
72087;SDS011;59961;50.232;8.616;2022-11-20T04:52:48;15.43;;;6.47;;
72087;SDS011;59961;50.232;8.616;2022-11-20T04:55:13;16.27;;;6.80;;
72087;SDS011;59961;50.232;8.616;2022-11-20T04:57:38;15.37;;;6.23;;
72087;SDS011;59961;50.232;8.616;2022-11-20T05:00:03;16.73;;;6.93;;
72087;SDS011;59961;50.232;8.616;2022-11-20T05:02:30;15.30;;;6.43;;
72087;SDS011;59961;50.232;8.616;2022-11-20T05:04:55;17.38;;;6.78;;
72087;SDS011;59961;50.232;8.616;2022-11-20T05:07:20;17.15;;;6.60;;
72087;SDS011;59961;50.232;8.616;2022-11-20T05:09:45;19.07;;;7.30;;
72087;SDS011;59961;50.232;8.616;2022-11-20T05:12:11;18.77;;;7.07;;
72087;SDS011;59961;50.232;8.616;2022-11-20T05:14:36;16.83;;;7.30;;
72087;SDS011;59961;50.232;8.616;2022-11-20T05:17:01;20.03;;;8.30;;
72087;SDS011;59961;50.232;8.616;2022-11-20T05:19:26;18.13;;;6.97;;
72087;SDS011;59961;50.232;8.616;2022-11-20T05:21:51;17.40;;;7.63;;
72087;SDS011;59961;50.232;8.616;2022-11-20T05:24:16;16.58;;;6.72;;
72087;SDS011;59961;50.232;8.616;2022-11-20T05:26:41;17.13;;;7.47;;
72087;SDS011;59961;50.232;8.616;2022-11-20T05:29:09;17.97;;;6.80;;
72087;SDS011;59961;50.232;8.616;2022-11-20T05:31:34;16.73;;;7.68;;
72087;SDS011;59961;50.232;8.616;2022-11-20T05:34:01;15.98;;;6.70;;
72087;SDS011;59961;50.232;8.616;2022-11-20T05:36:26;17.10;;;7.17;;
72087;SDS011;59961;50.232;8.616;2022-11-20T05:38:51;19.83;;;7.50;;
72087;SDS011;59961;50.232;8.616;2022-11-20T05:41:17;17.98;;;7.10;;
72087;SDS011;59961;50.232;8.616;2022-11-20T05:43:43;19.55;;;7.88;;
72087;SDS011;59961;50.232;8.616;2022-11-20T05:46:09;16.30;;;7.00;;
72087;SDS011;59961;50.232;8.616;2022-11-20T05:48:35;17.73;;;7.65;;
72087;SDS011;59961;50.232;8.616;2022-11-20T05:51:01;18.38;;;6.82;;
72087;SDS011;59961;50.232;8.616;2022-11-20T05:53:27;15.67;;;7.00;;
72087;SDS011;59961;50.232;8.616;2022-11-20T05:55:59;18.37;;;7.53;;
72087;SDS011;59961;50.232;8.616;2022-11-20T05:58:24;17.38;;;7.40;;
72087;SDS011;59961;50.232;8.616;2022-11-20T06:00:49;19.67;;;8.20;;
72087;SDS011;59961;50.232;8.616;2022-11-20T06:03:14;19.23;;;7.70;;
72087;SDS011;59961;50.232;8.616;2022-11-20T06:05:40;26.55;;;8.75;;
72087;SDS011;59961;50.232;8.616;2022-11-20T06:08:05;19.35;;;8.15;;
72087;SDS011;59961;50.232;8.616;2022-11-20T06:10:30;18.20;;;7.25;;
72087;SDS011;59961;50.232;8.616;2022-11-20T06:12:57;18.90;;;6.65;;
72087;SDS011;59961;50.232;8.616;2022-11-20T06:15:22;19.85;;;7.18;;
72087;SDS011;59961;50.232;8.616;2022-11-20T06:17:51;17.63;;;7.03;;
72087;SDS011;59961;50.232;8.616;2022-11-20T06:20:16;17.07;;;7.30;;
72087;SDS011;59961;50.232;8.616;2022-11-20T06:22:41;18.85;;;7.57;;
72087;SDS011;59961;50.232;8.616;2022-11-20T06:25:06;20.70;;;8.07;;
72087;SDS011;59961;50.232;8.616;2022-11-20T06:27:32;18.13;;;7.45;;
72087;SDS011;59961;50.232;8.616;2022-11-20T06:29:57;18.03;;;7.07;;
72087;SDS011;59961;50.232;8.616;2022-11-20T06:32:22;19.00;;;7.93;;
72087;SDS011;59961;50.232;8.616;2022-11-20T06:34:47;18.88;;;7.97;;
72087;SDS011;59961;50.232;8.616;2022-11-20T06:37:12;20.77;;;8.55;;
72087;SDS011;59961;50.232;8.616;2022-11-20T06:39:37;19.73;;;7.33;;
72087;SDS011;59961;50.232;8.616;2022-11-20T06:42:03;21.38;;;8.30;;
72087;SDS011;59961;50.232;8.616;2022-11-20T06:44:28;21.97;;;8.00;;
72087;SDS011;59961;50.232;8.616;2022-11-20T06:46:53;18.13;;;7.13;;
72087;SDS011;59961;50.232;8.616;2022-11-20T06:49:18;17.00;;;7.33;;
72087;SDS011;59961;50.232;8.616;2022-11-20T06:51:43;19.77;;;9.33;;
72087;SDS011;59961;50.232;8.616;2022-11-20T06:54:08;19.98;;;8.23;;
72087;SDS011;59961;50.232;8.616;2022-11-20T06:56:34;20.48;;;8.63;;
72087;SDS011;59961;50.232;8.616;2022-11-20T06:59:03;19.57;;;7.93;;
72087;SDS011;59961;50.232;8.616;2022-11-20T07:01:28;21.17;;;8.48;;
72087;SDS011;59961;50.232;8.616;2022-11-20T07:03:53;17.85;;;7.15;;
72087;SDS011;59961;50.232;8.616;2022-11-20T07:06:18;19.73;;;7.80;;
72087;SDS011;59961;50.232;8.616;2022-11-20T07:08:43;18.67;;;8.27;;
72087;SDS011;59961;50.232;8.616;2022-11-20T07:11:10;19.57;;;8.00;;
72087;SDS011;59961;50.232;8.616;2022-11-20T07:13:36;19.02;;;8.10;;
72087;SDS011;59961;50.232;8.616;2022-11-20T07:16:02;21.93;;;7.80;;
72087;SDS011;59961;50.232;8.616;2022-11-20T07:18:27;21.60;;;8.77;;
72087;SDS011;59961;50.232;8.616;2022-11-20T07:20:53;20.13;;;8.27;;
72087;SDS011;59961;50.232;8.616;2022-11-20T07:23:18;19.65;;;7.75;;
72087;SDS011;59961;50.232;8.616;2022-11-20T07:25:43;18.97;;;7.90;;
72087;SDS011;59961;50.232;8.616;2022-11-20T07:28:08;20.63;;;7.93;;
72087;SDS011;59961;50.232;8.616;2022-11-20T07:30:35;20.23;;;8.27;;
72087;SDS011;59961;50.232;8.616;2022-11-20T07:33:00;19.77;;;9.20;;
72087;SDS011;59961;50.232;8.616;2022-11-20T07:35:25;20.50;;;8.18;;
72087;SDS011;59961;50.232;8.616;2022-11-20T07:37:51;21.17;;;9.37;;
72087;SDS011;59961;50.232;8.616;2022-11-20T07:40:16;22.80;;;9.30;;
72087;SDS011;59961;50.232;8.616;2022-11-20T07:42:51;19.40;;;8.23;;
72087;SDS011;59961;50.232;8.616;2022-11-20T07:45:17;22.10;;;9.55;;
72087;SDS011;59961;50.232;8.616;2022-11-20T07:47:43;22.63;;;9.43;;
72087;SDS011;59961;50.232;8.616;2022-11-20T07:50:08;22.53;;;8.87;;
72087;SDS011;59961;50.232;8.616;2022-11-20T07:52:33;21.90;;;9.43;;
72087;SDS011;59961;50.232;8.616;2022-11-20T07:54:58;22.80;;;9.03;;
72087;SDS011;59961;50.232;8.616;2022-11-20T07:57:23;21.83;;;9.70;;
72087;SDS011;59961;50.232;8.616;2022-11-20T07:59:48;23.13;;;9.03;;
72087;SDS011;59961;50.232;8.616;2022-11-20T08:02:14;22.73;;;10.10;;
72087;SDS011;59961;50.232;8.616;2022-11-20T08:04:39;22.23;;;8.83;;
72087;SDS011;59961;50.232;8.616;2022-11-20T08:07:04;23.88;;;9.32;;
72087;SDS011;59961;50.232;8.616;2022-11-20T08:09:29;21.27;;;8.53;;
72087;SDS011;59961;50.232;8.616;2022-11-20T08:11:54;23.00;;;9.27;;
72087;SDS011;59961;50.232;8.616;2022-11-20T08:14:38;22.90;;;9.60;;
72087;SDS011;59961;50.232;8.616;2022-11-20T08:17:03;24.60;;;9.00;;
72087;SDS011;59961;50.232;8.616;2022-11-20T08:19:28;23.27;;;8.70;;
72087;SDS011;59961;50.232;8.616;2022-11-20T08:21:55;26.15;;;9.73;;
72087;SDS011;59961;50.232;8.616;2022-11-20T08:24:20;26.17;;;9.80;;
72087;SDS011;59961;50.232;8.616;2022-11-20T08:26:45;25.77;;;9.40;;
72087;SDS011;59961;50.232;8.616;2022-11-20T08:29:11;28.27;;;10.35;;
72087;SDS011;59961;50.232;8.616;2022-11-20T08:31:36;28.63;;;9.97;;
72087;SDS011;59961;50.232;8.616;2022-11-20T08:34:01;25.33;;;10.00;;
72087;SDS011;59961;50.232;8.616;2022-11-20T08:36:26;27.33;;;9.60;;
72087;SDS011;59961;50.232;8.616;2022-11-20T08:38:53;25.93;;;9.90;;
72087;SDS011;59961;50.232;8.616;2022-11-20T08:41:18;24.23;;;9.93;;
72087;SDS011;59961;50.232;8.616;2022-11-20T08:43:57;27.20;;;9.93;;
72087;SDS011;59961;50.232;8.616;2022-11-20T08:46:23;23.40;;;9.00;;
72087;SDS011;59961;50.232;8.616;2022-11-20T08:48:48;27.80;;;10.35;;
72087;SDS011;59961;50.232;8.616;2022-11-20T08:51:13;32.78;;;10.70;;
72087;SDS011;59961;50.232;8.616;2022-11-20T08:53:39;33.05;;;11.55;;
72087;SDS011;59961;50.232;8.616;2022-11-20T08:56:04;29.97;;;11.43;;
72087;SDS011;59961;50.232;8.616;2022-11-20T08:58:30;29.00;;;10.93;;
72087;SDS011;59961;50.232;8.616;2022-11-20T09:00:55;32.23;;;11.10;;
72087;SDS011;59961;50.232;8.616;2022-11-20T09:03:20;24.47;;;9.67;;
72087;SDS011;59961;50.232;8.616;2022-11-20T09:05:45;23.27;;;9.40;;
72087;SDS011;59961;50.232;8.616;2022-11-20T09:08:11;28.57;;;10.47;;
72087;SDS011;59961;50.232;8.616;2022-11-20T09:10:36;26.47;;;9.60;;
72087;SDS011;59961;50.232;8.616;2022-11-20T09:13:01;27.17;;;9.73;;
72087;SDS011;59961;50.232;8.616;2022-11-20T09:15:27;23.00;;;9.48;;
72087;SDS011;59961;50.232;8.616;2022-11-20T09:17:56;26.67;;;10.20;;
72087;SDS011;59961;50.232;8.616;2022-11-20T09:20:22;26.80;;;10.07;;
72087;SDS011;59961;50.232;8.616;2022-11-20T09:22:47;25.35;;;9.40;;
72087;SDS011;59961;50.232;8.616;2022-11-20T09:25:12;30.35;;;10.75;;
72087;SDS011;59961;50.232;8.616;2022-11-20T09:27:37;30.15;;;10.95;;
72087;SDS011;59961;50.232;8.616;2022-11-20T09:30:03;28.17;;;11.00;;
72087;SDS011;59961;50.232;8.616;2022-11-20T09:32:28;28.37;;;10.47;;
72087;SDS011;59961;50.232;8.616;2022-11-20T09:34:53;29.65;;;10.70;;
72087;SDS011;59961;50.232;8.616;2022-11-20T09:37:18;29.63;;;11.23;;
72087;SDS011;59961;50.232;8.616;2022-11-20T09:39:44;31.38;;;11.65;;
72087;SDS011;59961;50.232;8.616;2022-11-20T09:47:27;29.92;;;11.15;;
72087;SDS011;59961;50.232;8.616;2022-11-20T09:52:25;30.30;;;11.77;;
72087;SDS011;59961;50.232;8.616;2022-11-20T09:54:52;25.60;;;10.13;;
72087;SDS011;59961;50.232;8.616;2022-11-20T09:57:20;29.67;;;10.68;;
72087;SDS011;59961;50.232;8.616;2022-11-20T09:59:48;29.52;;;12.48;;
72087;SDS011;59961;50.232;8.616;2022-11-20T10:04:57;28.52;;;10.70;;
72087;SDS011;59961;50.232;8.616;2022-11-20T10:07:27;28.57;;;11.33;;
72087;SDS011;59961;50.232;8.616;2022-11-20T10:09:55;29.63;;;10.35;;
72087;SDS011;59961;50.232;8.616;2022-11-20T10:12:30;29.25;;;11.32;;
72087;SDS011;59961;50.232;8.616;2022-11-20T10:22:54;31.27;;;11.93;;
72087;SDS011;59961;50.232;8.616;2022-11-20T10:25:24;31.75;;;12.15;;
72087;SDS011;59961;50.232;8.616;2022-11-20T10:28:00;27.80;;;11.13;;
72087;SDS011;59961;50.232;8.616;2022-11-20T10:30:28;28.80;;;11.07;;
72087;SDS011;59961;50.232;8.616;2022-11-20T10:32:56;29.73;;;11.17;;
72087;SDS011;59961;50.232;8.616;2022-11-20T10:35:28;25.38;;;9.75;;
72087;SDS011;59961;50.232;8.616;2022-11-20T10:38:00;26.60;;;10.38;;
72087;SDS011;59961;50.232;8.616;2022-11-20T10:40:43;27.13;;;11.60;;
72087;SDS011;59961;50.232;8.616;2022-11-20T10:43:16;26.25;;;10.38;;
72087;SDS011;59961;50.232;8.616;2022-11-20T10:45:50;24.97;;;10.10;;
72087;SDS011;59961;50.232;8.616;2022-11-20T10:48:20;27.35;;;10.27;;
72087;SDS011;59961;50.232;8.616;2022-11-20T10:53:36;28.63;;;10.68;;
72087;SDS011;59961;50.232;8.616;2022-11-20T10:59:05;24.53;;;9.37;;
72087;SDS011;59961;50.232;8.616;2022-11-20T11:01:38;25.90;;;10.07;;
72087;SDS011;59961;50.232;8.616;2022-11-20T11:04:06;24.90;;;10.07;;
72087;SDS011;59961;50.232;8.616;2022-11-20T11:06:42;22.83;;;9.63;;
72087;SDS011;59961;50.232;8.616;2022-11-20T11:09:11;28.23;;;12.85;;
72087;SDS011;59961;50.232;8.616;2022-11-20T11:11:37;24.67;;;10.73;;
72087;SDS011;59961;50.232;8.616;2022-11-20T11:14:06;28.83;;;10.83;;
72087;SDS011;59961;50.232;8.616;2022-11-20T11:16:31;26.27;;;9.48;;
72087;SDS011;59961;50.232;8.616;2022-11-20T11:19:06;25.20;;;9.73;;
72087;SDS011;59961;50.232;8.616;2022-11-20T11:21:31;23.65;;;9.65;;
72087;SDS011;59961;50.232;8.616;2022-11-20T11:23:58;23.47;;;9.80;;
72087;SDS011;59961;50.232;8.616;2022-11-20T11:26:24;23.70;;;8.80;;
72087;SDS011;59961;50.232;8.616;2022-11-20T11:28:56;25.23;;;10.30;;
72087;SDS011;59961;50.232;8.616;2022-11-20T11:31:25;23.25;;;9.07;;
72087;SDS011;59961;50.232;8.616;2022-11-20T11:33:50;26.20;;;10.48;;
72087;SDS011;59961;50.232;8.616;2022-11-20T11:36:17;22.87;;;9.00;;
72087;SDS011;59961;50.232;8.616;2022-11-20T11:38:42;23.67;;;9.98;;
72087;SDS011;59961;50.232;8.616;2022-11-20T11:41:13;24.07;;;9.57;;
72087;SDS011;59961;50.232;8.616;2022-11-20T11:43:40;25.00;;;10.07;;
72087;SDS011;59961;50.232;8.616;2022-11-20T11:46:33;21.77;;;9.40;;
72087;SDS011;59961;50.232;8.616;2022-11-20T11:54:23;26.52;;;10.63;;
72087;SDS011;59961;50.232;8.616;2022-11-20T11:56:49;25.30;;;9.48;;
72087;SDS011;59961;50.232;8.616;2022-11-20T11:59:16;25.70;;;9.83;;
72087;SDS011;59961;50.232;8.616;2022-11-20T12:01:49;23.90;;;9.88;;
72087;SDS011;59961;50.232;8.616;2022-11-20T12:07:03;26.17;;;10.53;;
72087;SDS011;59961;50.232;8.616;2022-11-20T12:09:34;29.38;;;10.10;;
72087;SDS011;59961;50.232;8.616;2022-11-20T12:12:10;24.40;;;9.35;;
72087;SDS011;59961;50.232;8.616;2022-11-20T12:14:40;24.35;;;9.52;;
72087;SDS011;59961;50.232;8.616;2022-11-20T12:17:08;23.60;;;9.63;;
72087;SDS011;59961;50.232;8.616;2022-11-20T12:19:35;25.17;;;10.43;;
72087;SDS011;59961;50.232;8.616;2022-11-20T12:24:34;31.30;;;13.05;;
72087;SDS011;59961;50.232;8.616;2022-11-20T12:29:36;24.65;;;10.20;;
72087;SDS011;59961;50.232;8.616;2022-11-20T12:37:30;30.10;;;12.68;;
72087;SDS011;59961;50.232;8.616;2022-11-20T12:42:59;28.65;;;11.43;;
72087;SDS011;59961;50.232;8.616;2022-11-20T12:45:54;26.33;;;11.57;;
72087;SDS011;59961;50.232;8.616;2022-11-20T12:48:30;26.97;;;11.83;;
72087;SDS011;59961;50.232;8.616;2022-11-20T12:53:33;36.05;;;16.67;;
72087;SDS011;59961;50.232;8.616;2022-11-20T12:56:10;29.15;;;12.60;;
72087;SDS011;59961;50.232;8.616;2022-11-20T13:01:32;39.60;;;17.57;;
72087;SDS011;59961;50.232;8.616;2022-11-20T13:06:48;31.05;;;13.18;;
72087;SDS011;59961;50.232;8.616;2022-11-20T13:09:15;28.27;;;11.48;;
72087;SDS011;59961;50.232;8.616;2022-11-20T13:11:46;25.70;;;11.03;;
72087;SDS011;59961;50.232;8.616;2022-11-20T13:14:16;38.05;;;15.75;;
72087;SDS011;59961;50.232;8.616;2022-11-20T13:16:52;30.58;;;12.63;;
72087;SDS011;59961;50.232;8.616;2022-11-20T13:19:18;28.75;;;12.10;;
72087;SDS011;59961;50.232;8.616;2022-11-20T13:21:44;34.90;;;14.93;;
72087;SDS011;59961;50.232;8.616;2022-11-20T13:29:33;23.15;;;9.68;;
72087;SDS011;59961;50.232;8.616;2022-11-20T13:32:06;25.65;;;9.55;;
72087;SDS011;59961;50.232;8.616;2022-11-20T13:34:31;41.15;;;16.77;;
72087;SDS011;59961;50.232;8.616;2022-11-20T13:36:57;25.60;;;10.33;;
72087;SDS011;59961;50.232;8.616;2022-11-20T13:39:26;25.60;;;10.38;;
72087;SDS011;59961;50.232;8.616;2022-11-20T13:41:55;45.95;;;22.67;;
72087;SDS011;59961;50.232;8.616;2022-11-20T13:44:35;26.92;;;11.88;;
72087;SDS011;59961;50.232;8.616;2022-11-20T13:47:02;25.57;;;10.50;;
72087;SDS011;59961;50.232;8.616;2022-11-20T13:49:37;24.55;;;9.73;;
72087;SDS011;59961;50.232;8.616;2022-11-20T14:02:27;27.88;;;11.23;;
72087;SDS011;59961;50.232;8.616;2022-11-20T14:04:56;27.40;;;10.40;;
72087;SDS011;59961;50.232;8.616;2022-11-20T14:07:24;25.10;;;10.55;;
72087;SDS011;59961;50.232;8.616;2022-11-20T14:09:54;27.70;;;11.73;;
72087;SDS011;59961;50.232;8.616;2022-11-20T14:12:20;26.80;;;10.27;;
72087;SDS011;59961;50.232;8.616;2022-11-20T14:14:52;28.50;;;12.27;;
72087;SDS011;59961;50.232;8.616;2022-11-20T14:17:23;29.97;;;12.10;;
72087;SDS011;59961;50.232;8.616;2022-11-20T14:19:50;30.35;;;13.23;;
72087;SDS011;59961;50.232;8.616;2022-11-20T14:22:20;27.42;;;11.43;;
72087;SDS011;59961;50.232;8.616;2022-11-20T14:24:51;24.52;;;10.45;;
72087;SDS011;59961;50.232;8.616;2022-11-20T14:27:25;28.90;;;11.80;;
72087;SDS011;59961;50.232;8.616;2022-11-20T14:29:50;25.43;;;10.30;;
72087;SDS011;59961;50.232;8.616;2022-11-20T14:32:19;26.53;;;10.07;;
72087;SDS011;59961;50.232;8.616;2022-11-20T14:34:45;26.73;;;11.03;;
72087;SDS011;59961;50.232;8.616;2022-11-20T14:37:11;25.60;;;11.35;;
72087;SDS011;59961;50.232;8.616;2022-11-20T14:39:41;26.48;;;11.13;;
72087;SDS011;59961;50.232;8.616;2022-11-20T14:42:20;27.17;;;11.32;;
72087;SDS011;59961;50.232;8.616;2022-11-20T14:44:47;27.02;;;10.95;;
72087;SDS011;59961;50.232;8.616;2022-11-20T14:47:13;30.33;;;12.07;;
72087;SDS011;59961;50.232;8.616;2022-11-20T14:49:40;28.33;;;11.20;;
72087;SDS011;59961;50.232;8.616;2022-11-20T14:52:11;27.87;;;11.00;;
72087;SDS011;59961;50.232;8.616;2022-11-20T14:54:47;30.52;;;11.45;;
72087;SDS011;59961;50.232;8.616;2022-11-20T14:57:29;25.95;;;10.60;;
72087;SDS011;59961;50.232;8.616;2022-11-20T15:00:05;26.27;;;11.18;;
72087;SDS011;59961;50.232;8.616;2022-11-20T15:02:31;50.83;;;23.10;;
72087;SDS011;59961;50.232;8.616;2022-11-20T15:04:57;35.20;;;13.60;;
72087;SDS011;59961;50.232;8.616;2022-11-20T15:07:25;31.97;;;13.40;;
72087;SDS011;59961;50.232;8.616;2022-11-20T15:12:31;29.63;;;11.77;;
72087;SDS011;59961;50.232;8.616;2022-11-20T15:14:58;29.48;;;10.20;;
72087;SDS011;59961;50.232;8.616;2022-11-20T15:17:24;32.10;;;12.35;;
72087;SDS011;59961;50.232;8.616;2022-11-20T15:19:49;31.27;;;12.90;;
72087;SDS011;59961;50.232;8.616;2022-11-20T15:22:14;33.17;;;14.00;;
72087;SDS011;59961;50.232;8.616;2022-11-20T15:24:41;32.42;;;12.95;;
72087;SDS011;59961;50.232;8.616;2022-11-20T15:27:07;28.27;;;12.17;;
72087;SDS011;59961;50.232;8.616;2022-11-20T15:29:32;27.70;;;11.53;;
72087;SDS011;59961;50.232;8.616;2022-11-20T15:31:57;33.72;;;12.88;;
72087;SDS011;59961;50.232;8.616;2022-11-20T15:34:23;34.37;;;16.27;;
72087;SDS011;59961;50.232;8.616;2022-11-20T15:36:48;34.43;;;14.23;;
72087;SDS011;59961;50.232;8.616;2022-11-20T15:39:13;32.63;;;14.67;;
72087;SDS011;59961;50.232;8.616;2022-11-20T15:41:38;30.70;;;13.57;;
72087;SDS011;59961;50.232;8.616;2022-11-20T15:44:04;34.80;;;13.48;;
72087;SDS011;59961;50.232;8.616;2022-11-20T15:46:30;33.67;;;12.23;;